Home > Products > Valid Products > MTR

000
SAUS44 KMEG 290054
MTRTUP
METAR KTUP 290053Z AUTO 19008KT 10SM CLR 06/M02 A3021 RMK AO2 SLP232
T00611022 $





000
SAUS44 KMEG 282354
MTRTUP
METAR KTUP 282353Z AUTO 19006KT 10SM CLR 07/M02 A3023 RMK AO2 SLP237
T00671022 10111 20061 56009 $





000
SAUS44 KMEG 282254
MTRTUP
METAR KTUP 282253Z AUTO 18005KT 10SM CLR 08/M02 A3023 RMK AO2 SLP238
T00781022 $





000
SAUS44 KMEG 282154
MTRTUP
METAR KTUP 282153Z AUTO 10SM CLR 10/M02 A3024 RMK AO2 SLP243
T01001022 $





000
SAUS44 KMEG 282054
MTRTUP
METAR KTUP 282053Z AUTO 10SM CLR 11/M02 A3026 RMK AO2 SLP246
T01061022 56038 $





000
SAUS44 KMEG 281954
MTRTUP
METAR KTUP 281953Z 10SM CLR 11/M02 A3028 RMK AO2 SLP254 T01061022 $





000
SAUS44 KMEG 281854
MTRTUP
METAR KTUP 281853Z 10SM CLR 09/M03 A3032 RMK AO2 SLP267 T00891028 $





000
SAUS44 KMEG 281754
MTRTUP
METAR KTUP 281753Z 19006KT 10SM CLR 08/M02 A3037 RMK AO2 SLP285
T00781022 10078 21028 58028





000
SAUS44 KMEG 281654
MTRTUP
METAR KTUP 281653Z 20007KT 10SM CLR 07/M02 A3041 RMK AO2 SLP299
T00671022





000
SAUS44 KMEG 281554
MTRTUP
METAR KTUP 281553Z 21006KT 10SM CLR 04/M03 A3044 RMK AO2 SLP310
T00441028





000
SAUS44 KMEG 281454
MTRTUP
METAR KTUP 281453Z 18008KT 10SM CLR 02/M04 A3045 RMK AO2 SLP314
T00221039 52004





000
SAUS44 KMEG 281354
MTRTUP
METAR KTUP 281353Z 18003KT 10SM CLR M01/M03 A3045 RMK AO2 SLP313
T10061033





000
SAUS44 KMEG 281254
MTRTUP
METAR KTUP 281253Z 00000KT 7SM CLR M03/M05 A3044 RMK AO2 SLP311
T10281050 $





000
SAUS44 KMEG 281154
MTRTUP
METAR KTUP 281153Z 00000KT 10SM CLR M03/M04 A3044 RMK AO2 SLP310
T10281044 11011 21039 56006 $





000
SAUS44 KMEG 281054
MTRTUP
METAR KTUP 281053Z AUTO 03003KT 9SM CLR M03/M06 A3044 RMK AO2 SLP311
T10331056 $





000
SAUS44 KMEG 280954
MTRTUP
METAR KTUP 280953Z AUTO 00000KT 10SM CLR M02/M04 A3045 RMK AO2
SLP311 T10221039 $





000
SAUS44 KMEG 280854
MTRTUP
METAR KTUP 280853Z AUTO 00000KT 10SM CLR M02/M04 A3046 RMK AO2
SLP315 T10171039 58002 $





000
SAUS44 KMEG 280755
MTRTUP
METAR KTUP 280753Z AUTO 00000KT 10SM CLR M02/M04 A3046 RMK AO2
SLP317 T10221039 $





000
SAUS44 KMEG 280654
MTRTUP
METAR KTUP 280653Z AUTO 00000KT 10SM CLR M02/M04 A3047 RMK AO2
SLP318 T10171039 $





000
SAUS44 KMEG 280554
MTRTUP
METAR KTUP 280553Z AUTO 03003KT 10SM CLR M01/M04 A3046 RMK AO2
SLP317 T10111044 10028 21022 400721022 56012 $





000
SAUS44 KMEG 280454
MTRTUP
METAR KTUP 280453Z AUTO 06004KT 10SM CLR M01/M04 A3047 RMK AO2
SLP321 T10061039 $





000
SAUS44 KMEG 280354
MTRTUP
METAR KTUP 280353Z 07006KT 10SM CLR 00/M03 A3048 RMK AO2 SLP323
T00001028 $





000
SAUS44 KMEG 280354
MTRTUP
METAR KTUP 280353Z 07006KT 10SM CLR 00/M03 A3048 RMK AO2 SLP323
T00001028 $





000
SAUS44 KMEG 280254
MTRTUP
METAR KTUP 280253Z 03005KT 10SM CLR M01/M03 A3050 RMK AO2 SLP329
T10061033 53007 $





000
SAUS44 KMEG 280154
MTRTUP
METAR KTUP 280153Z 02003KT 10SM CLR 01/M03 A3048 RMK AO2 SLP324
T00111028 $





000
SAUS44 KMEG 280154
MTRTUP
METAR KTUP 280153Z 02003KT 10SM CLR 01/M03 A3048 RMK AO2 SLP324
T00111028 $





000
SAUS44 KMEG 280054
MTRTUP
METAR KTUP 280053Z 03003KT 10SM CLR 02/M03 A3048 RMK AO2 SLP324
T00171028 $





000
SAUS44 KMEG 272354
MTRTUP
METAR KTUP 272353Z 03004KT 10SM CLR 03/M03 A3048 RMK AO2 SLP321
T00281028 10072 20022 51008 $





000
SAUS44 KMEG 272254
MTRTUP
METAR KTUP 272253Z 01003KT 10SM CLR 04/M03 A3047 RMK AO2 SLP319
T00391028 $





000
SAUS44 KMEG 272154
MTRTUP
METAR KTUP 272153Z 36005KT 10SM BKN037 07/M02 A3047 RMK AO2 SLP318
T00671022 $





000
SAUS44 KMEG 272054
MTRTUP
METAR KTUP 272053Z 34012KT 10SM BKN038 07/M02 A3045 RMK AO2 SLP312
T00671022 56003 $





000
SAUS44 KMEG 271954
MTRTUP
METAR KTUP 271953Z 01008KT 10SM OVC036 07/M02 A3045 RMK AO2 SLP312
T00671022 $





000
SAUS44 KMEG 271854
MTRTUP
METAR KTUP 271853Z 10SM OVC037 06/M02 A3045 RMK AO2 SLP314 T00611022
$





000
SAUS44 KMEG 271754
MTRTUP
METAR KTUP 271753Z 02009KT 10SM OVC033 06/M02 A3046 RMK AO2 SLP316
T00561022 10056 20022 50004 $





000
SAUS44 KMEG 271738
MTRTUP
SPECI KTUP 271737Z 03007KT 10SM OVC030 06/M02 A3046 RMK AO2
T00561022 $





000
SAUS44 KMEG 271654
MTRTUP
METAR KTUP 271653Z 10SM OVC028 05/M02 A3048 RMK AO2 SLP321 T00501017
$





000
SAUS44 KMEG 271554
MTRTUP
METAR KTUP 271553Z 10SM OVC026 04/M02 A3046 RMK AO2 SLP316 T00441017
$





000
SAUS44 KMEG 271454
MTRTUP
METAR KTUP 271453Z 10SM OVC026 04/M02 A3045 RMK AO2 SLP311 T00441017
53034 $





000
SAUS44 KMEG 271354
MTRTUP
METAR KTUP 271353Z 10SM OVC029 04/M01 A3041 RMK AO2 SLP297 T00441011
$





000
SAUS44 KMEG 271347
MTRTUP
SPECI KTUP 271346Z 10SM OVC029 04/M01 A3040 RMK AO2 T00441011 $





000
SAUS44 KMEG 271254
MTRTUP
METAR KTUP 271253Z 34006KT 10SM OVC030 03/M02 A3037 RMK AO2 SLP285
T00331017 $





000
SAUS44 KMEG 271154
MTRTUP
METAR KTUP 271153Z AUTO 32004KT 10SM CLR 02/M02 A3035 RMK AO2 SLP276
T00221022 10044 20022 53027 $





000
SAUS44 KMEG 271054
MTRTUP
METAR KTUP 271053Z AUTO 34005KT 10SM CLR 03/M02 A3031 RMK AO2 SLP265
T00281022 $





000
SAUS44 KMEG 270954
MTRTUP
METAR KTUP 270953Z AUTO 34008KT 10SM CLR 04/M02 A3028 RMK AO2 SLP255
T00391022 $





000
SAUS44 KMEG 270954
MTRTUP
METAR KTUP 270953Z AUTO 34008KT 10SM CLR 04/M02 A3028 RMK AO2 SLP255
T00391022 $





000
SAUS44 KMEG 270854
MTRTUP
METAR KTUP 270853Z AUTO 33006KT 10SM CLR 04/M02 A3026 RMK AO2 SLP248
T00441017 53025 $





000
SAUS44 KMEG 270754
MTRTUP
METAR KTUP 270753Z AUTO VRB03KT 10SM CLR 04/M01 A3023 RMK AO2 SLP238
T00441006 $





000
SAUS44 KMEG 270654
MTRTUP
METAR KTUP 270653Z AUTO 27004KT 10SM CLR 03/00 A3021 RMK AO2 SLP229
T00280000 $





000
SAUS44 KMEG 270554
MTRTUP
METAR KTUP 270553Z AUTO 29004KT 10SM CLR 04/01 A3019 RMK AO2 SLP223
T00440006 10117 20039 401331028 51012 $





000
SAUS44 KMEG 270454
MTRTUP
METAR KTUP 270453Z AUTO 00000KT 10SM FEW070 06/00 A3018 RMK AO2
SLP221 T00560000 $





000
SAUS44 KMEG 270454
MTRTUP
METAR KTUP 270453Z AUTO 00000KT 10SM FEW070 06/00 A3018 RMK AO2
SLP221 T00560000 $





000
SAUS44 KMEG 270354
MTRTUP
METAR KTUP 270353Z 31003KT 10SM BKN070 07/01 A3017 RMK AO2 SLP217
T00670006 $





000
SAUS44 KMEG 270354
MTRTUP
METAR KTUP 270353Z 31003KT 10SM BKN070 07/01 A3017 RMK AO2 SLP217
T00670006 $





000
SAUS44 KMEG 270254
MTRTUP
METAR KTUP 270253Z 31003KT 10SM BKN070 08/M01 A3015 RMK AO2 SLP210
T00831006 51021 $





000
SAUS44 KMEG 270154
MTRTUP
METAR KTUP 270153Z VRB05KT 10SM BKN075 09/M01 A3015 RMK AO2 SLP209
T00891011 $





000
SAUS44 KMEG 270054
MTRTUP
METAR KTUP 270053Z 31012KT 10SM FEW080 09/M01 A3013 RMK AO2 SLP205
T00941006 $





000
SAUS44 KMEG 262354
MTRTUP
METAR KTUP 262353Z AUTO 10SM BKN060 BKN075 12/02 A3009 RMK AO2
PRESRR SLP190 T01170017 10133 20094 53035 $





000
SAUS44 KMEG 262254
MTRTUP
METAR KTUP 262253Z AUTO 26009KT 10SM BKN100 13/01 A3002 RMK AO2
SLP165 T01280006 $





000
SAUS44 KMEG 262154
MTRTUP
METAR KTUP 262153Z AUTO 21005KT 10SM OVC075 12/00 A3001 RMK AO2
SLP164 T01170000 $





000
SAUS44 KMEG 262154
MTRTUP
METAR KTUP 262153Z AUTO 21005KT 10SM OVC075 12/00 A3001 RMK AO2
SLP164 T01170000 $





000
SAUS44 KMEG 262054
MTRTUP
METAR KTUP 262053Z AUTO 18008KT 10SM OVC100 12/M01 A2999 RMK AO2
SLP154 T01221006 56036 $





000
SAUS44 KMEG 261954
MTRTUP
METAR KTUP 261953Z AUTO 10SM OVC110 11/M01 A3000 RMK AO2 SLP159
T01111006 $





000
SAUS44 KMEG 261854
MTRTUP
METAR KTUP 261853Z 10SM FEW110 11/M02 A3005 RMK AO2 PRESFR SLP177
T01061017 $





000
SAUS44 KMEG 261754
MTRTUP
METAR KTUP 261753Z 20011KT 10SM CLR 09/M02 A3009 RMK AO2 PRESFR
SLP192 I6000 T00941017 10094 21028 58032





000
SAUS44 KMEG 261654
MTRTUP
METAR KTUP 261653Z 21010KT 10SM CLR 09/M01 A3015 RMK AO2 SLP211
T00891011





000
SAUS44 KMEG 261554
MTRTUP
METAR KTUP 261553Z 19006KT 10SM CLR 07/M01 A3018 RMK AO2 SLP220
T00721011





000
SAUS44 KMEG 261454
MTRTUP
METAR KTUP 261453Z 19003KT 10SM CLR 04/M01 A3019 RMK AO2 SLP224
I3000 T00391011 52011





000
SAUS44 KMEG 261354
MTRTUP
METAR KTUP 261353Z 00000KT 10SM CLR 00/M02 A3019 RMK AO2 SLP223
T00001022





000
SAUS44 KMEG 261254
MTRTUP
METAR KTUP 261253Z 00000KT 10SM CLR M02/M03 A3016 RMK AO2 SLP214
I1000 T10171033





000
SAUS44 KMEG 261154
MTRTUP
METAR KTUP 261153Z 00000KT 10SM CLR M03/M05 A3016 RMK AO2 SLP213
T10281050 10006 21028 55005





000
SAUS44 KMEG 261054
MTRTUP
METAR KTUP 261053Z AUTO 00000KT 10SM CLR M02/M04 A3015 RMK AO2
SLP211 T10171039





000
SAUS44 KMEG 260954
MTRTUP
METAR KTUP 260953Z AUTO 07003KT 10SM CLR M01/M04 A3016 RMK AO2
SLP215 T10111039





000
SAUS44 KMEG 260954
MTRTUP
METAR KTUP 260953Z AUTO 07003KT 10SM CLR M01/M04 A3016 RMK AO2
SLP215 T10111039





000
SAUS44 KMEG 260854
MTRTUP
METAR KTUP 260853Z AUTO 28003KT 10SM CLR M02/M04 A3017 RMK AO2
SLP218 T10171039 55002





000
SAUS44 KMEG 260754
MTRTUP
METAR KTUP 260753Z AUTO 00000KT 10SM CLR M01/M03 A3016 RMK AO2
SLP215 T10111033





000
SAUS44 KMEG 260654
MTRTUP
METAR KTUP 260653Z AUTO 00000KT 10SM CLR M01/M03 A3016 RMK AO2
SLP213 T10061033





000
SAUS44 KMEG 260554
MTRTUP
METAR KTUP 260553Z AUTO 00000KT 10SM CLR 01/M03 A3018 RMK AO2 SLP219
T00061033 10072 20006 401000006 58007





000
SAUS44 KMEG 260454
MTRTUP
METAR KTUP 260453Z AUTO 36003KT 10SM CLR 02/M04 A3019 RMK AO2 SLP223
T00171039





000
SAUS44 KMEG 260354
MTRTUP
METAR KTUP 260353Z 34004KT 10SM CLR 04/M04 A3019 RMK AO2 SLP224
T00391039





000
SAUS44 KMEG 260254
MTRTUP
METAR KTUP 260253Z 33004KT 10SM CLR 04/M04 A3020 RMK AO2 SLP225
T00441039 53007





000
SAUS44 KMEG 260154
MTRTUP
METAR KTUP 260153Z 32005KT 10SM CLR 06/M04 A3019 RMK AO2 SLP226
T00561044





    US Dept of Commerce
    National Oceanic and Atmospheric Administration
    National Weather Service
    1325 East West Highway
    Silver Spring, MD 20910
    Page Author: NWS Internet Services Team
Disclaimer
Information Quality
Credits
Glossary
Privacy Policy
Freedom of Information Act (FOIA)
About Us
Career Opportunities